sensor_id;sensor_type;location;lat;lon;timestamp;temperature;humidity
38464;DHT22;24243;51.956;5.902;2023-03-11T00:00:16;18.00;52.90
38464;DHT22;24243;51.956;5.902;2023-03-11T00:02:43;17.90;52.80
38464;DHT22;24243;51.956;5.902;2023-03-11T00:05:11;17.90;52.80
38464;DHT22;24243;51.956;5.902;2023-03-11T00:07:38;17.90;52.80
38464;DHT22;24243;51.956;5.902;2023-03-11T00:10:05;17.90;52.80
38464;DHT22;24243;51.956;5.902;2023-03-11T00:12:30;17.90;52.80
38464;DHT22;24243;51.956;5.902;2023-03-11T00:14:56;17.90;52.80
38464;DHT22;24243;51.956;5.902;2023-03-11T00:17:21;17.80;52.80
38464;DHT22;24243;51.956;5.902;2023-03-11T00:19:47;17.80;52.80
38464;DHT22;24243;51.956;5.902;2023-03-11T00:22:13;17.80;52.80
38464;DHT22;24243;51.956;5.902;2023-03-11T00:24:38;17.80;52.80
38464;DHT22;24243;51.956;5.902;2023-03-11T00:27:04;17.80;52.80
38464;DHT22;24243;51.956;5.902;2023-03-11T00:29:29;17.80;52.80
38464;DHT22;24243;51.956;5.902;2023-03-11T00:31:55;17.70;52.70
38464;DHT22;24243;51.956;5.902;2023-03-11T00:34:20;17.70;52.80
38464;DHT22;24243;51.956;5.902;2023-03-11T00:36:46;17.70;52.80
38464;DHT22;24243;51.956;5.902;2023-03-11T00:39:11;17.70;52.80
38464;DHT22;24243;51.956;5.902;2023-03-11T00:41:37;17.70;52.80
38464;DHT22;24243;51.956;5.902;2023-03-11T00:44:03;17.60;52.70
38464;DHT22;24243;51.956;5.902;2023-03-11T00:46:28;17.60;52.70
38464;DHT22;24243;51.956;5.902;2023-03-11T00:48:55;17.60;52.70
38464;DHT22;24243;51.956;5.902;2023-03-11T00:51:20;17.60;52.70
38464;DHT22;24243;51.956;5.902;2023-03-11T00:53:46;17.60;52.70
38464;DHT22;24243;51.956;5.902;2023-03-11T00:56:12;17.60;52.70
38464;DHT22;24243;51.956;5.902;2023-03-11T00:58:38;17.50;52.70
38464;DHT22;24243;51.956;5.902;2023-03-11T01:01:15;17.50;52.70
38464;DHT22;24243;51.956;5.902;2023-03-11T01:03:41;17.60;52.70
38464;DHT22;24243;51.956;5.902;2023-03-11T01:06:07;17.50;52.70
38464;DHT22;24243;51.956;5.902;2023-03-11T01:08:33;17.50;52.70
38464;DHT22;24243;51.956;5.902;2023-03-11T01:10:59;17.50;52.70
38464;DHT22;24243;51.956;5.902;2023-03-11T01:13:26;17.50;52.70
38464;DHT22;24243;51.956;5.902;2023-03-11T01:15:52;17.50;52.70
38464;DHT22;24243;51.956;5.902;2023-03-11T01:18:18;17.50;52.70
38464;DHT22;24243;51.956;5.902;2023-03-11T01:20:44;17.40;52.70
38464;DHT22;24243;51.956;5.902;2023-03-11T01:23:10;17.40;52.70
38464;DHT22;24243;51.956;5.902;2023-03-11T01:25:36;17.40;52.70
38464;DHT22;24243;51.956;5.902;2023-03-11T01:28:02;17.40;52.70
38464;DHT22;24243;51.956;5.902;2023-03-11T01:30:28;17.40;52.70
38464;DHT22;24243;51.956;5.902;2023-03-11T01:32:54;17.40;52.70
38464;DHT22;24243;51.956;5.902;2023-03-11T01:35:21;17.30;52.60
38464;DHT22;24243;51.956;5.902;2023-03-11T01:37:48;17.30;52.60
38464;DHT22;24243;51.956;5.902;2023-03-11T01:40:23;17.30;52.60
38464;DHT22;24243;51.956;5.902;2023-03-11T01:42:50;17.40;52.70
38464;DHT22;24243;51.956;5.902;2023-03-11T01:47:44;17.30;52.60
38464;DHT22;24243;51.956;5.902;2023-03-11T01:50:09;17.30;52.60
38464;DHT22;24243;51.956;5.902;2023-03-11T01:52:36;17.30;52.60
38464;DHT22;24243;51.956;5.902;2023-03-11T01:55:02;17.30;52.70
38464;DHT22;24243;51.956;5.902;2023-03-11T01:57:28;17.30;52.70
38464;DHT22;24243;51.956;5.902;2023-03-11T01:59:54;17.20;52.60
38464;DHT22;24243;51.956;5.902;2023-03-11T02:02:22;17.20;52.70
38464;DHT22;24243;51.956;5.902;2023-03-11T02:04:49;17.20;52.70
38464;DHT22;24243;51.956;5.902;2023-03-11T02:07:15;17.20;52.70
38464;DHT22;24243;51.956;5.902;2023-03-11T02:09:41;17.20;52.70
38464;DHT22;24243;51.956;5.902;2023-03-11T02:12:07;17.20;52.70
38464;DHT22;24243;51.956;5.902;2023-03-11T02:14:33;17.20;52.70
38464;DHT22;24243;51.956;5.902;2023-03-11T02:17:00;17.10;52.60
38464;DHT22;24243;51.956;5.902;2023-03-11T02:19:28;17.10;52.60
38464;DHT22;24243;51.956;5.902;2023-03-11T02:21:55;17.10;52.60
38464;DHT22;24243;51.956;5.902;2023-03-11T02:24:42;17.10;52.60
38464;DHT22;24243;51.956;5.902;2023-03-11T02:27:11;17.10;52.60
38464;DHT22;24243;51.956;5.902;2023-03-11T02:29:37;17.10;52.60
38464;DHT22;24243;51.956;5.902;2023-03-11T02:32:06;17.10;52.60
38464;DHT22;24243;51.956;5.902;2023-03-11T02:34:33;17.10;52.60
38464;DHT22;24243;51.956;5.902;2023-03-11T02:36:59;17.10;52.60
38464;DHT22;24243;51.956;5.902;2023-03-11T02:39:29;17.10;52.60
38464;DHT22;24243;51.956;5.902;2023-03-11T02:41:54;17.00;52.60
38464;DHT22;24243;51.956;5.902;2023-03-11T02:44:20;17.00;52.50
38464;DHT22;24243;51.956;5.902;2023-03-11T02:46:46;17.00;52.60
38464;DHT22;24243;51.956;5.902;2023-03-11T02:49:13;17.00;52.60
38464;DHT22;24243;51.956;5.902;2023-03-11T02:51:39;17.00;52.50
38464;DHT22;24243;51.956;5.902;2023-03-11T02:54:04;17.00;52.50
38464;DHT22;24243;51.956;5.902;2023-03-11T02:56:30;17.00;52.50
38464;DHT22;24243;51.956;5.902;2023-03-11T02:58:56;17.00;52.50
38464;DHT22;24243;51.956;5.902;2023-03-11T03:01:21;17.00;52.50
38464;DHT22;24243;51.956;5.902;2023-03-11T03:03:47;17.00;52.50
38464;DHT22;24243;51.956;5.902;2023-03-11T03:06:13;16.90;52.50
38464;DHT22;24243;51.956;5.902;2023-03-11T03:08:39;17.00;52.50
38464;DHT22;24243;51.956;5.902;2023-03-11T03:11:05;17.00;52.50
38464;DHT22;24243;51.956;5.902;2023-03-11T03:13:31;16.90;52.50
38464;DHT22;24243;51.956;5.902;2023-03-11T03:15:56;17.00;52.50
38464;DHT22;24243;51.956;5.902;2023-03-11T03:18:22;16.90;52.50
38464;DHT22;24243;51.956;5.902;2023-03-11T03:20:48;17.00;52.50
38464;DHT22;24243;51.956;5.902;2023-03-11T03:23:14;16.90;52.50
38464;DHT22;24243;51.956;5.902;2023-03-11T03:25:43;16.90;52.50
38464;DHT22;24243;51.956;5.902;2023-03-11T03:28:10;16.90;52.50
38464;DHT22;24243;51.956;5.902;2023-03-11T03:30:36;16.90;52.50
38464;DHT22;24243;51.956;5.902;2023-03-11T03:33:01;16.90;52.50
38464;DHT22;24243;51.956;5.902;2023-03-11T03:35:27;16.90;52.50
38464;DHT22;24243;51.956;5.902;2023-03-11T03:37:53;16.90;52.50
38464;DHT22;24243;51.956;5.902;2023-03-11T03:40:20;16.90;52.50
38464;DHT22;24243;51.956;5.902;2023-03-11T03:42:45;16.90;52.50
38464;DHT22;24243;51.956;5.902;2023-03-11T03:45:11;16.90;52.50
38464;DHT22;24243;51.956;5.902;2023-03-11T03:47:37;16.90;52.50
38464;DHT22;24243;51.956;5.902;2023-03-11T03:50:06;16.80;52.50
38464;DHT22;24243;51.956;5.902;2023-03-11T03:52:33;16.80;52.40
38464;DHT22;24243;51.956;5.902;2023-03-11T03:55:00;16.80;52.40
38464;DHT22;24243;51.956;5.902;2023-03-11T03:57:27;16.80;52.40
38464;DHT22;24243;51.956;5.902;2023-03-11T03:59:52;16.80;52.40
38464;DHT22;24243;51.956;5.902;2023-03-11T04:02:18;16.80;52.40
38464;DHT22;24243;51.956;5.902;2023-03-11T04:04:45;16.80;52.40
38464;DHT22;24243;51.956;5.902;2023-03-11T04:07:11;16.80;52.40
38464;DHT22;24243;51.956;5.902;2023-03-11T04:09:40;16.80;52.40
38464;DHT22;24243;51.956;5.902;2023-03-11T04:12:06;16.80;52.40
38464;DHT22;24243;51.956;5.902;2023-03-11T04:14:32;16.80;52.40
38464;DHT22;24243;51.956;5.902;2023-03-11T04:17:00;16.80;52.40
38464;DHT22;24243;51.956;5.902;2023-03-11T04:19:25;16.80;52.40
38464;DHT22;24243;51.956;5.902;2023-03-11T04:21:51;16.80;52.40
38464;DHT22;24243;51.956;5.902;2023-03-11T04:24:17;16.70;52.40
38464;DHT22;24243;51.956;5.902;2023-03-11T04:26:43;16.70;52.40
38464;DHT22;24243;51.956;5.902;2023-03-11T04:29:09;16.70;52.30
38464;DHT22;24243;51.956;5.902;2023-03-11T04:31:34;16.70;52.30
38464;DHT22;24243;51.956;5.902;2023-03-11T04:34:00;16.70;52.30
38464;DHT22;24243;51.956;5.902;2023-03-11T04:36:26;16.70;52.30
38464;DHT22;24243;51.956;5.902;2023-03-11T04:38:51;16.70;52.30
38464;DHT22;24243;51.956;5.902;2023-03-11T04:41:17;16.70;52.30
38464;DHT22;24243;51.956;5.902;2023-03-11T04:43:43;16.70;52.30
38464;DHT22;24243;51.956;5.902;2023-03-11T04:46:08;16.70;52.30
38464;DHT22;24243;51.956;5.902;2023-03-11T04:48:34;16.70;52.30
38464;DHT22;24243;51.956;5.902;2023-03-11T04:51:00;16.70;52.30
38464;DHT22;24243;51.956;5.902;2023-03-11T04:53:25;16.70;52.30
38464;DHT22;24243;51.956;5.902;2023-03-11T04:55:51;16.70;52.30
38464;DHT22;24243;51.956;5.902;2023-03-11T04:58:18;16.70;52.30
38464;DHT22;24243;51.956;5.902;2023-03-11T05:00:44;16.70;52.30
38464;DHT22;24243;51.956;5.902;2023-03-11T05:03:10;16.70;52.30
38464;DHT22;24243;51.956;5.902;2023-03-11T05:05:36;16.70;52.30
38464;DHT22;24243;51.956;5.902;2023-03-11T05:08:02;16.60;52.30
38464;DHT22;24243;51.956;5.902;2023-03-11T05:10:27;16.60;52.30
38464;DHT22;24243;51.956;5.902;2023-03-11T05:12:53;16.60;52.30
38464;DHT22;24243;51.956;5.902;2023-03-11T05:15:19;16.60;52.30
38464;DHT22;24243;51.956;5.902;2023-03-11T05:17:44;16.60;52.30
38464;DHT22;24243;51.956;5.902;2023-03-11T05:20:10;16.60;52.30
38464;DHT22;24243;51.956;5.902;2023-03-11T05:22:36;16.60;52.30
38464;DHT22;24243;51.956;5.902;2023-03-11T05:25:02;16.60;52.30
38464;DHT22;24243;51.956;5.902;2023-03-11T05:27:28;16.60;52.30
38464;DHT22;24243;51.956;5.902;2023-03-11T05:29:53;16.60;52.30
38464;DHT22;24243;51.956;5.902;2023-03-11T05:32:19;16.60;52.30
38464;DHT22;24243;51.956;5.902;2023-03-11T05:34:44;16.60;52.30
38464;DHT22;24243;51.956;5.902;2023-03-11T05:37:10;16.60;52.30
38464;DHT22;24243;51.956;5.902;2023-03-11T05:39:36;16.50;52.30
38464;DHT22;24243;51.956;5.902;2023-03-11T05:42:02;16.50;52.30
38464;DHT22;24243;51.956;5.902;2023-03-11T05:44:28;16.50;52.30
38464;DHT22;24243;51.956;5.902;2023-03-11T05:46:54;16.50;52.30
38464;DHT22;24243;51.956;5.902;2023-03-11T05:49:20;16.50;52.30
38464;DHT22;24243;51.956;5.902;2023-03-11T05:51:46;16.50;52.30
38464;DHT22;24243;51.956;5.902;2023-03-11T05:54:11;16.50;52.30
38464;DHT22;24243;51.956;5.902;2023-03-11T05:56:43;16.50;52.30
38464;DHT22;24243;51.956;5.902;2023-03-11T05:59:09;16.50;52.40
38464;DHT22;24243;51.956;5.902;2023-03-11T06:01:35;16.40;52.30
38464;DHT22;24243;51.956;5.902;2023-03-11T06:04:00;16.40;52.30
38464;DHT22;24243;51.956;5.902;2023-03-11T06:06:26;16.40;52.30
38464;DHT22;24243;51.956;5.902;2023-03-11T06:08:52;16.40;52.30
38464;DHT22;24243;51.956;5.902;2023-03-11T06:11:18;16.40;52.30
38464;DHT22;24243;51.956;5.902;2023-03-11T06:13:43;16.40;52.30
38464;DHT22;24243;51.956;5.902;2023-03-11T06:16:09;16.40;52.30
38464;DHT22;24243;51.956;5.902;2023-03-11T06:18:35;16.40;52.30
38464;DHT22;24243;51.956;5.902;2023-03-11T06:21:00;16.40;52.30
38464;DHT22;24243;51.956;5.902;2023-03-11T06:23:26;16.40;52.30
38464;DHT22;24243;51.956;5.902;2023-03-11T06:25:56;16.40;52.30
38464;DHT22;24243;51.956;5.902;2023-03-11T06:28:22;16.40;52.20
38464;DHT22;24243;51.956;5.902;2023-03-11T06:30:48;16.40;52.20
38464;DHT22;24243;51.956;5.902;2023-03-11T06:33:13;16.40;52.20
38464;DHT22;24243;51.956;5.902;2023-03-11T06:35:39;16.40;52.20
38464;DHT22;24243;51.956;5.902;2023-03-11T06:38:05;16.40;52.10
38464;DHT22;24243;51.956;5.902;2023-03-11T06:40:30;16.40;52.10
38464;DHT22;24243;51.956;5.902;2023-03-11T06:42:56;16.50;52.10
38464;DHT22;24243;51.956;5.902;2023-03-11T06:45:22;16.50;52.10
38464;DHT22;24243;51.956;5.902;2023-03-11T06:47:47;16.50;52.10
38464;DHT22;24243;51.956;5.902;2023-03-11T06:50:13;16.50;52.00
38464;DHT22;24243;51.956;5.902;2023-03-11T06:52:38;16.60;52.00
38464;DHT22;24243;51.956;5.902;2023-03-11T06:55:04;16.70;52.00
38464;DHT22;24243;51.956;5.902;2023-03-11T06:57:30;16.70;51.80
38464;DHT22;24243;51.956;5.902;2023-03-11T06:59:55;16.90;51.80
38464;DHT22;24243;51.956;5.902;2023-03-11T07:02:21;17.00;51.60
38464;DHT22;24243;51.956;5.902;2023-03-11T07:04:50;17.20;51.40
38464;DHT22;24243;51.956;5.902;2023-03-11T07:07:15;17.30;51.30
38464;DHT22;24243;51.956;5.902;2023-03-11T07:09:41;17.50;51.10
38464;DHT22;24243;51.956;5.902;2023-03-11T07:12:07;17.60;50.90
38464;DHT22;24243;51.956;5.902;2023-03-11T07:14:33;17.80;50.70
38464;DHT22;24243;51.956;5.902;2023-03-11T07:16:59;18.00;50.70
38464;DHT22;24243;51.956;5.902;2023-03-11T07:19:24;18.10;50.50
38464;DHT22;24243;51.956;5.902;2023-03-11T07:21:50;18.20;50.40
38464;DHT22;24243;51.956;5.902;2023-03-11T07:24:15;18.30;50.40
38464;DHT22;24243;51.956;5.902;2023-03-11T07:26:41;18.40;50.40
38464;DHT22;24243;51.956;5.902;2023-03-11T07:29:07;18.50;50.40
38464;DHT22;24243;51.956;5.902;2023-03-11T07:31:34;18.60;50.30
38464;DHT22;24243;51.956;5.902;2023-03-11T07:34:01;18.70;50.20
38464;DHT22;24243;51.956;5.902;2023-03-11T07:36:28;18.90;50.10
38464;DHT22;24243;51.956;5.902;2023-03-11T07:38:54;19.00;50.00
38464;DHT22;24243;51.956;5.902;2023-03-11T07:41:22;19.20;49.80
38464;DHT22;24243;51.956;5.902;2023-03-11T07:43:48;19.40;49.70
38464;DHT22;24243;51.956;5.902;2023-03-11T07:46:14;19.50;49.30
38464;DHT22;24243;51.956;5.902;2023-03-11T07:48:42;19.70;49.10
38464;DHT22;24243;51.956;5.902;2023-03-11T07:51:12;19.90;49.00
38464;DHT22;24243;51.956;5.902;2023-03-11T07:53:38;20.00;48.90
38464;DHT22;24243;51.956;5.902;2023-03-11T07:56:06;20.10;48.70
38464;DHT22;24243;51.956;5.902;2023-03-11T07:58:32;20.40;48.50
38464;DHT22;24243;51.956;5.902;2023-03-11T08:01:02;20.60;47.90
38464;DHT22;24243;51.956;5.902;2023-03-11T08:03:28;20.90;47.40
38464;DHT22;24243;51.956;5.902;2023-03-11T08:05:54;21.30;46.90
38464;DHT22;24243;51.956;5.902;2023-03-11T08:08:19;21.60;46.20
38464;DHT22;24243;51.956;5.902;2023-03-11T08:10:45;22.00;45.60
38464;DHT22;24243;51.956;5.902;2023-03-11T08:13:10;22.40;45.10
38464;DHT22;24243;51.956;5.902;2023-03-11T08:15:36;22.80;44.50
38464;DHT22;24243;51.956;5.902;2023-03-11T08:18:02;23.10;43.90
38464;DHT22;24243;51.956;5.902;2023-03-11T08:20:28;23.40;43.50
38464;DHT22;24243;51.956;5.902;2023-03-11T08:22:53;23.70;43.10
38464;DHT22;24243;51.956;5.902;2023-03-11T08:25:19;24.00;42.60
38464;DHT22;24243;51.956;5.902;2023-03-11T08:27:44;24.30;42.20
38464;DHT22;24243;51.956;5.902;2023-03-11T08:30:10;24.20;42.30
38464;DHT22;24243;51.956;5.902;2023-03-11T08:32:36;23.90;43.00
38464;DHT22;24243;51.956;5.902;2023-03-11T08:35:02;23.80;43.50
38464;DHT22;24243;51.956;5.902;2023-03-11T08:37:27;24.00;43.20
38464;DHT22;24243;51.956;5.902;2023-03-11T08:39:53;24.20;42.90
38464;DHT22;24243;51.956;5.902;2023-03-11T08:42:18;24.40;42.80
38464;DHT22;24243;51.956;5.902;2023-03-11T08:44:45;24.50;42.50
38464;DHT22;24243;51.956;5.902;2023-03-11T08:47:10;24.60;42.50
38464;DHT22;24243;51.956;5.902;2023-03-11T08:49:36;24.50;42.50
38464;DHT22;24243;51.956;5.902;2023-03-11T08:52:02;24.70;42.40
38464;DHT22;24243;51.956;5.902;2023-03-11T08:54:28;24.60;42.50
38464;DHT22;24243;51.956;5.902;2023-03-11T08:56:54;24.40;43.00
38464;DHT22;24243;51.956;5.902;2023-03-11T08:59:19;24.10;43.70
38464;DHT22;24243;51.956;5.902;2023-03-11T09:01:45;23.60;44.60
38464;DHT22;24243;51.956;5.902;2023-03-11T09:04:11;23.10;45.50
38464;DHT22;24243;51.956;5.902;2023-03-11T09:06:40;22.80;46.30
38464;DHT22;24243;51.956;5.902;2023-03-11T09:09:06;22.50;46.90
38464;DHT22;24243;51.956;5.902;2023-03-11T09:11:31;22.20;47.50
38464;DHT22;24243;51.956;5.902;2023-03-11T09:13:57;22.00;47.90
38464;DHT22;24243;51.956;5.902;2023-03-11T09:16:23;21.80;48.20
38464;DHT22;24243;51.956;5.902;2023-03-11T09:18:49;21.70;48.50
38464;DHT22;24243;51.956;5.902;2023-03-11T09:21:14;21.50;48.60
38464;DHT22;24243;51.956;5.902;2023-03-11T09:23:40;21.40;48.80
38464;DHT22;24243;51.956;5.902;2023-03-11T09:26:06;21.30;48.90
38464;DHT22;24243;51.956;5.902;2023-03-11T09:28:31;21.30;49.10
38464;DHT22;24243;51.956;5.902;2023-03-11T09:30:57;21.20;49.10
38464;DHT22;24243;51.956;5.902;2023-03-11T09:33:22;21.20;49.10
38464;DHT22;24243;51.956;5.902;2023-03-11T09:35:48;21.20;49.20
38464;DHT22;24243;51.956;5.902;2023-03-11T09:38:14;21.20;49.20
38464;DHT22;24243;51.956;5.902;2023-03-11T09:46:15;21.10;49.10
38464;DHT22;24243;51.956;5.902;2023-03-11T09:48:48;21.10;49.20
38464;DHT22;24243;51.956;5.902;2023-03-11T09:51:19;21.10;49.10
38464;DHT22;24243;51.956;5.902;2023-03-11T09:53:48;21.10;49.10
38464;DHT22;24243;51.956;5.902;2023-03-11T09:56:19;21.10;49.00
38464;DHT22;24243;51.956;5.902;2023-03-11T09:58:50;21.10;49.00
38464;DHT22;24243;51.956;5.902;2023-03-11T10:01:21;21.10;48.90
38464;DHT22;24243;51.956;5.902;2023-03-11T10:03:49;21.10;49.00
38464;DHT22;24243;51.956;5.902;2023-03-11T10:06:21;21.10;49.00
38464;DHT22;24243;51.956;5.902;2023-03-11T10:08:56;21.10;49.00
38464;DHT22;24243;51.956;5.902;2023-03-11T10:12:06;21.10;49.00
38464;DHT22;24243;51.956;5.902;2023-03-11T10:19:20;21.20;48.90
38464;DHT22;24243;51.956;5.902;2023-03-11T10:21:56;21.20;48.80
38464;DHT22;24243;51.956;5.902;2023-03-11T10:27:15;21.20;48.90
38464;DHT22;24243;51.956;5.902;2023-03-11T10:29:44;21.20;48.90
38464;DHT22;24243;51.956;5.902;2023-03-11T10:35:02;21.20;48.90
38464;DHT22;24243;51.956;5.902;2023-03-11T10:37:34;21.20;49.00
38464;DHT22;24243;51.956;5.902;2023-03-11T10:40:49;21.20;49.00
38464;DHT22;24243;51.956;5.902;2023-03-11T10:42:49;21.20;49.00
38464;DHT22;24243;51.956;5.902;2023-03-11T10:45:15;21.30;49.00
38464;DHT22;24243;51.956;5.902;2023-03-11T10:47:41;21.30;49.00
38464;DHT22;24243;51.956;5.902;2023-03-11T10:50:09;21.30;49.10
38464;DHT22;24243;51.956;5.902;2023-03-11T10:53:02;21.20;49.10
38464;DHT22;24243;51.956;5.902;2023-03-11T10:55:28;21.20;49.10
38464;DHT22;24243;51.956;5.902;2023-03-11T10:58:03;21.20;49.10
38464;DHT22;24243;51.956;5.902;2023-03-11T11:00:29;21.20;49.30
38464;DHT22;24243;51.956;5.902;2023-03-11T11:02:56;21.10;49.30
38464;DHT22;24243;51.956;5.902;2023-03-11T11:08:01;21.10;49.40
38464;DHT22;24243;51.956;5.902;2023-03-11T11:10:28;21.10;49.50
38464;DHT22;24243;51.956;5.902;2023-03-11T11:12:55;21.10;49.50
38464;DHT22;24243;51.956;5.902;2023-03-11T11:15:26;21.10;49.50
38464;DHT22;24243;51.956;5.902;2023-03-11T11:17:52;21.10;49.50
38464;DHT22;24243;51.956;5.902;2023-03-11T11:20:20;21.10;49.50
38464;DHT22;24243;51.956;5.902;2023-03-11T11:22:50;21.20;49.50
38464;DHT22;24243;51.956;5.902;2023-03-11T11:27:56;21.20;49.30
38464;DHT22;24243;51.956;5.902;2023-03-11T11:30:22;21.30;49.30
38464;DHT22;24243;51.956;5.902;2023-03-11T11:32:48;21.30;49.20
38464;DHT22;24243;51.956;5.902;2023-03-11T11:35:18;21.40;49.20
38464;DHT22;24243;51.956;5.902;2023-03-11T11:37:54;21.40;49.10
38464;DHT22;24243;51.956;5.902;2023-03-11T11:40:25;21.50;49.10
38464;DHT22;24243;51.956;5.902;2023-03-11T11:42:55;21.50;49.10
38464;DHT22;24243;51.956;5.902;2023-03-11T11:45:25;21.50;49.00
38464;DHT22;24243;51.956;5.902;2023-03-11T11:47:52;21.60;49.10
38464;DHT22;24243;51.956;5.902;2023-03-11T11:50:23;21.60;49.10
38464;DHT22;24243;51.956;5.902;2023-03-11T11:52:55;21.60;49.10
38464;DHT22;24243;51.956;5.902;2023-03-11T11:55:25;21.60;49.10
38464;DHT22;24243;51.956;5.902;2023-03-11T11:57:52;21.60;49.10
38464;DHT22;24243;51.956;5.902;2023-03-11T12:00:18;21.60;49.10
38464;DHT22;24243;51.956;5.902;2023-03-11T12:02:59;21.60;49.10
38464;DHT22;24243;51.956;5.902;2023-03-11T12:05:28;21.60;49.20
